TFM - Tactical Decision Aid
ID: Runway Winds: CIG/VIS Threshold:

KOGB - Orangeburg Muni, SC, US

Updated at: 0907 UTC 26 Jan 2020
Latest TAF at: 0528 UTC 26 Jan 2020

TAF Board

Time0853Z 26/10Z 26/11Z 26/12Z 26/13Z 26/14Z 26/15Z 26/16Z 26/17Z 26/18Z 26/19Z 26/20Z 26/21Z 26/22Z>>
Type OBS PRVL PRVL PRVL PRVL PRVL PRVL PRVL PRVL PRVL PRVL PRVL PRVL PRVL
VIS 10 >6 >6 >6 >6 >6 >6 >6 >6 >6 >6 >6 >6 >6
CIG -- 250 250 250 250 -- -- -- -- -- -- -- -- --
Cover CLR BKN BKN BKN BKN SCT SCT SCT SCT SCT SCT SCT SCT SCT
FltCat VFR VFR VFR VFR VFR VFR VFR VFR VFR VFR VFR VFR VFR VFR
WX -- -- -- -- -- -- -- -- -- -- -- -- -- --
WDir 290 270 270 270 270 290 290 290 290 290 290 290 290 290
WSpd 5 5 5 5 5 7 7 7 7 7 7 7 7 7
WGst -- -- -- -- -- -- -- -- -- -- -- -- -- --

TDA Impact Legend

  None Marginal Slight Moderate High
Visibility (sm) >5 3≤X≤5 2≤X<3 1≤X<2 <1
Ceiling (100 ft) >30 10≤X≤30 8≤X<10 3≤X<8 <3
Wind Speed (kt) <15 15≤X<25 25≤X<30 ≥30
Wind Gust (kt) <15 15≤X<25 25≤X<35 ≥35
Weather No Wx Reported VCTS -TS,-FZRA TS,FZRA +TS,+FZRA
TAF
KOGB 260528Z 2606/2706 27005KT P6SM BKN250
  FM261400 29007KT P6SM SCT250
  FM270500 VRB03KT P6SM BKN080 OVC150


METAR
KOGB 260853Z AUTO 29005KT 10SM CLR 06/01 A3004 RMK AO2 SLP170 T00560006 56008
KOGB 260753Z AUTO 26006KT 10SM CLR 06/01 A3005 RMK AO2 SLP175 T00560006
KOGB 260653Z AUTO 26006KT 10SM CLR 06/01 A3004 RMK AO2 SLP172 T00610006
KOGB 260553Z AUTO 28007KT 10SM CLR 07/01 A3006 RMK AO2 SLP178 T00670006 10089 20067 51001

Radar Display
Forecast Discussion